Аэропорт: Игнатьево. Благовещенск

ICAO: UHBB

METAR:
2019/05/26 14:00
UHBB 261400Z 35003MPS 9999 FEW033 12/01 Q1011 R36/090060 NOSIG RMK QFE741/0988
METAR:
2019/05/26 12:00
TAF UHBB 261056Z 2612/2712 21003MPS 9999 SCT030 
      BECMG 2614/2616 36003MPS 
      TEMPO 2618/2623 3100 BR SCT010 BKN020CB 
      BECMG 2623/2701 36007G12MPS